createdAt,value
2023-03-20T00:00:57.420Z,1.57
2023-03-20T00:03:27.764Z,1.20
2023-03-20T00:05:57.477Z,1.25
2023-03-20T00:08:29.704Z,1.20
2023-03-20T00:11:00.511Z,1.17
2023-03-20T00:13:29.944Z,1.00
2023-03-20T00:15:59.353Z,1.20
2023-03-20T00:18:29.937Z,1.10
2023-03-20T00:20:59.395Z,1.20
2023-03-20T00:23:28.823Z,1.20
2023-03-20T00:25:58.630Z,1.30
2023-03-20T00:28:40.881Z,1.15
2023-03-20T00:33:47.500Z,1.45
2023-03-20T00:36:16.943Z,1.00
2023-03-20T00:38:46.590Z,0.90
2023-03-20T00:41:27.645Z,0.90
2023-03-20T00:44:03.281Z,1.35
2023-03-20T00:46:35.957Z,1.20
2023-03-20T00:49:08.074Z,1.00
2023-03-20T00:51:38.478Z,1.10
2023-03-20T00:54:16.966Z,1.05
2023-03-20T00:57:04.778Z,1.10
2023-03-20T00:59:37.349Z,0.95
2023-03-20T01:02:07.510Z,1.30
2023-03-20T01:04:40.937Z,1.10
2023-03-20T01:07:13.431Z,1.12
2023-03-20T01:09:43.246Z,0.78
2023-03-20T01:12:15.329Z,1.15
2023-03-20T01:14:47.133Z,1.13
2023-03-20T01:17:22.910Z,1.00
2023-03-20T01:19:53.299Z,1.15
2023-03-20T01:22:22.790Z,1.07
2023-03-20T01:24:52.310Z,0.90
2023-03-20T01:27:22.615Z,0.90
2023-03-20T01:29:52.044Z,0.90
2023-03-20T01:32:21.927Z,0.93
2023-03-20T01:34:53.443Z,1.20
2023-03-20T01:37:28.102Z,1.00
2023-03-20T01:39:59.335Z,1.00
2023-03-20T01:42:29.460Z,1.10
2023-03-20T01:44:59.159Z,1.00
2023-03-20T01:47:29.786Z,1.10
2023-03-20T01:50:32.907Z,0.93
2023-03-20T01:53:12.387Z,0.90
2023-03-20T01:55:47.377Z,1.20
2023-03-20T01:58:20.429Z,1.62
2023-03-20T02:00:50.198Z,1.30
2023-03-20T02:03:20.806Z,1.12
2023-03-20T02:06:01.989Z,1.12
2023-03-20T02:08:35.516Z,1.07
2023-03-20T02:11:06.772Z,1.35
2023-03-20T02:13:36.793Z,1.10
2023-03-20T02:16:09.270Z,0.98
2023-03-20T02:18:57.445Z,1.05
2023-03-20T02:21:59.434Z,1.10
2023-03-20T02:25:02.445Z,1.42
2023-03-20T02:27:43.486Z,1.27
2023-03-20T02:30:28.425Z,1.10
2023-03-20T02:33:01.471Z,1.32
2023-03-20T02:35:40.697Z,1.07
2023-03-20T02:38:29.032Z,1.40
2023-03-20T02:41:30.827Z,1.22
2023-03-20T02:44:22.340Z,1.32
2023-03-20T02:46:59.496Z,1.60
2023-03-20T02:50:01.462Z,1.10
2023-03-20T02:52:48.833Z,1.00
2023-03-20T02:55:40.421Z,1.10
2023-03-20T02:58:34.636Z,1.40
2023-03-20T03:01:13.594Z,1.17
2023-03-20T03:03:55.754Z,1.12
2023-03-20T03:06:35.186Z,1.50
2023-03-20T03:09:17.805Z,1.15
2023-03-20T03:11:50.955Z,1.67
2023-03-20T03:14:38.559Z,1.42
2023-03-20T03:17:11.132Z,1.12
2023-03-20T03:19:43.957Z,1.27
2023-03-20T03:22:16.018Z,1.30
2023-03-20T03:25:44.402Z,1.25
2023-03-20T03:28:34.500Z,1.67
2023-03-20T03:31:07.455Z,1.10
2023-03-20T03:33:41.344Z,1.25
2023-03-20T03:36:25.575Z,1.00
2023-03-20T03:39:19.300Z,1.17
2023-03-20T03:41:58.501Z,1.32
2023-03-20T03:44:32.544Z,1.30
2023-03-20T03:47:05.365Z,1.35
2023-03-20T03:49:38.631Z,1.10
2023-03-20T03:52:11.257Z,1.55
2023-03-20T03:57:38.933Z,1.52
2023-03-20T04:00:12.877Z,1.50
2023-03-20T04:02:45.051Z,1.50
2023-03-20T04:05:17.729Z,1.20
2023-03-20T04:10:16.646Z,1.57
2023-03-20T04:12:47.701Z,1.30
2023-03-20T04:15:17.858Z,1.60
2023-03-20T04:17:48.125Z,1.77
2023-03-20T04:20:18.818Z,1.30
2023-03-20T04:22:49.712Z,1.20
2023-03-20T04:25:26.973Z,1.40
2023-03-20T04:27:57.648Z,1.37
2023-03-20T04:30:45.921Z,1.42
2023-03-20T04:35:48.070Z,1.60
2023-03-20T04:38:20.205Z,1.60
2023-03-20T04:40:51.538Z,1.40
2023-03-20T04:43:21.532Z,1.37
2023-03-20T04:45:50.940Z,1.30
2023-03-20T04:48:20.913Z,1.04
2023-03-20T04:50:51.431Z,1.90
2023-03-20T04:53:22.751Z,1.10
2023-03-20T04:55:53.483Z,1.37
2023-03-20T04:58:24.047Z,1.27
2023-03-20T05:00:53.550Z,1.40
2023-03-20T05:03:24.247Z,1.35
2023-03-20T05:05:54.399Z,1.70
2023-03-20T05:08:24.570Z,1.50
2023-03-20T05:10:55.871Z,1.45
2023-03-20T05:13:30.054Z,1.60
2023-03-20T05:16:10.340Z,1.30
2023-03-20T05:18:42.272Z,1.22
2023-03-20T05:21:28.356Z,1.35
2023-03-20T05:24:05.685Z,1.52
2023-03-20T05:26:39.749Z,1.50
2023-03-20T05:29:27.135Z,1.80
2023-03-20T05:32:07.731Z,1.80
2023-03-20T05:34:41.886Z,1.60
2023-03-20T05:37:21.878Z,1.40
2023-03-20T05:42:43.968Z,1.45
2023-03-20T05:45:18.859Z,1.70
2023-03-20T05:47:50.046Z,1.65
2023-03-20T05:50:30.549Z,1.70
2023-03-20T05:53:17.108Z,1.30
2023-03-20T05:55:57.332Z,1.30
2023-03-20T05:58:28.459Z,1.77
2023-03-20T06:01:05.929Z,2.60
2023-03-20T06:03:40.079Z,1.90
2023-03-20T06:06:11.781Z,1.92
2023-03-20T06:08:41.804Z,2.35
2023-03-20T06:11:12.670Z,2.08
2023-03-20T06:13:42.309Z,2.60
2023-03-20T06:16:13.084Z,3.02
2023-03-20T06:18:42.603Z,2.10
2023-03-20T06:21:13.025Z,2.30
2023-03-20T06:23:43.233Z,2.10
2023-03-20T06:26:13.129Z,2.02
2023-03-20T06:28:47.049Z,1.80
2023-03-20T06:31:17.519Z,2.10
2023-03-20T06:33:47.840Z,2.10
2023-03-20T06:36:17.425Z,1.90
2023-03-20T06:38:47.231Z,2.10
2023-03-20T06:41:33.375Z,1.87
2023-03-20T06:43:49.903Z,2.27
2023-03-20T06:46:20.783Z,1.60
2023-03-20T06:48:50.958Z,2.22
2023-03-20T06:51:20.392Z,1.95
2023-03-20T06:53:51.744Z,1.85
2023-03-20T06:56:23.240Z,1.80
2023-03-20T06:58:53.785Z,2.05
2023-03-20T07:01:24.325Z,1.60
2023-03-20T07:03:53.857Z,1.70
2023-03-20T07:06:25.015Z,1.75
2023-03-20T07:08:55.935Z,2.30
2023-03-20T07:11:25.566Z,2.42
2023-03-20T07:13:56.818Z,1.90
2023-03-20T07:16:29.652Z,1.98
2023-03-20T07:18:59.298Z,1.90
2023-03-20T07:21:31.111Z,2.20
2023-03-20T07:24:01.611Z,2.12
2023-03-20T07:26:31.107Z,1.82
2023-03-20T07:29:00.626Z,1.92
2023-03-20T07:31:31.325Z,1.87
2023-03-20T07:34:11.930Z,2.15
2023-03-20T07:36:43.780Z,2.10
2023-03-20T07:39:15.178Z,1.83
2023-03-20T07:41:46.796Z,1.80
2023-03-20T07:44:19.333Z,1.60
2023-03-20T07:46:51.540Z,1.57
2023-03-20T07:49:23.269Z,1.70
2023-03-20T07:51:55.246Z,1.92
2023-03-20T07:54:25.363Z,2.17
2023-03-20T07:56:55.170Z,1.52
2023-03-20T07:59:24.604Z,1.70
2023-03-20T08:01:54.095Z,1.52
2023-03-20T08:06:47.529Z,1.40
2023-03-20T08:09:18.379Z,1.90
2023-03-20T08:11:48.207Z,1.70
2023-03-20T08:14:17.648Z,1.57
2023-03-20T08:16:47.149Z,1.83
2023-03-20T08:19:18.074Z,1.60
2023-03-20T08:21:49.810Z,1.40
2023-03-20T08:24:19.725Z,1.60
2023-03-20T08:26:49.135Z,1.40
2023-03-20T08:29:19.383Z,1.07
2023-03-20T08:31:49.839Z,0.60
2023-03-20T08:34:19.348Z,1.15
2023-03-20T08:36:48.792Z,0.98
2023-03-20T08:39:18.329Z,0.60
2023-03-20T08:41:47.759Z,0.62
2023-03-20T08:44:17.257Z,0.70
2023-03-20T08:46:47.701Z,0.63
2023-03-20T08:49:17.207Z,0.78
2023-03-20T08:51:46.738Z,0.65
2023-03-20T08:54:18.615Z,0.70
2023-03-20T08:56:48.084Z,0.80
2023-03-20T08:59:17.594Z,0.62
2023-03-20T09:01:50.168Z,0.70
2023-03-20T09:04:19.897Z,0.53
2023-03-20T09:06:50.973Z,0.80
2023-03-20T09:09:22.427Z,0.72
2023-03-20T09:14:35.186Z,0.88
2023-03-20T09:17:04.813Z,1.15
2023-03-20T09:19:34.839Z,0.70
2023-03-20T09:22:06.543Z,0.82
2023-03-20T09:24:35.978Z,0.65
2023-03-20T09:27:05.474Z,1.10
2023-03-20T09:29:35.996Z,0.80
2023-03-20T09:32:05.570Z,0.85
2023-03-20T09:34:35.919Z,0.70
2023-03-20T09:37:05.425Z,0.70
2023-03-20T09:39:37.006Z,0.75
2023-03-20T09:42:12.625Z,0.98
2023-03-20T09:45:17.289Z,0.80
2023-03-20T09:48:09.396Z,0.98
2023-03-20T09:50:42.685Z,0.90
2023-03-20T09:53:21.056Z,1.30
2023-03-20T09:55:54.011Z,0.90
2023-03-20T10:00:57.798Z,0.70
2023-03-20T10:03:30.291Z,1.02
2023-03-20T10:06:08.647Z,0.88
2023-03-20T10:08:40.869Z,1.30
2023-03-20T10:11:25.827Z,1.03
2023-03-20T10:14:01.953Z,0.70
2023-03-20T10:16:54.229Z,1.15
2023-03-20T10:19:26.809Z,1.10
2023-03-20T10:24:36.831Z,0.80
2023-03-20T10:27:10.791Z,1.00
2023-03-20T10:29:46.307Z,0.85
2023-03-20T10:32:28.301Z,1.30
2023-03-20T10:35:17.501Z,0.73
2023-03-20T10:38:14.239Z,0.93
2023-03-20T10:40:44.327Z,1.07
2023-03-20T10:43:18.054Z,1.02
2023-03-20T10:45:51.028Z,1.10
2023-03-20T10:48:23.826Z,1.30
2023-03-20T10:50:56.714Z,0.98
2023-03-20T10:54:04.218Z,0.90
2023-03-20T10:56:43.334Z,0.93
2023-03-20T10:59:19.390Z,0.80
2023-03-20T11:01:48.924Z,0.97
2023-03-20T11:04:18.551Z,1.25
2023-03-20T11:07:04.107Z,1.10
2023-03-20T11:09:34.537Z,0.80
2023-03-20T11:12:18.701Z,0.65
2023-03-20T11:14:48.187Z,0.78
2023-03-20T11:17:18.713Z,0.95
2023-03-20T11:19:48.272Z,1.00
2023-03-20T11:22:26.995Z,0.90
2023-03-20T11:25:01.884Z,0.90
2023-03-20T11:27:35.428Z,0.85
2023-03-20T11:30:08.496Z,0.95
2023-03-20T11:32:44.098Z,0.80
2023-03-20T11:35:23.390Z,0.90
2023-03-20T11:37:55.411Z,1.00
2023-03-20T11:40:27.697Z,0.83
2023-03-20T11:43:04.520Z,1.00
2023-03-20T11:45:39.438Z,0.80
2023-03-20T11:48:20.917Z,0.85
2023-03-20T11:51:02.261Z,1.00
2023-03-20T11:53:35.052Z,0.98
2023-03-20T11:56:08.112Z,1.32
2023-03-20T11:58:41.623Z,1.10
2023-03-20T12:01:13.450Z,1.15
2023-03-20T12:03:47.001Z,1.00
2023-03-20T12:06:19.498Z,1.07
2023-03-20T12:08:54.982Z,1.12
2023-03-20T12:11:30.155Z,1.00
2023-03-20T12:14:03.554Z,1.00
2023-03-20T12:16:37.182Z,1.15
2023-03-20T12:19:12.748Z,1.30
2023-03-20T12:21:47.311Z,1.00
2023-03-20T12:24:31.252Z,1.05
2023-03-20T12:27:09.776Z,1.20
2023-03-20T12:29:50.193Z,1.15
2023-03-20T12:32:34.096Z,0.88
2023-03-20T12:35:16.853Z,1.10
2023-03-20T12:37:46.897Z,1.00
2023-03-20T12:40:21.519Z,1.07
2023-03-20T12:43:16.977Z,1.12
2023-03-20T12:45:59.030Z,1.17
2023-03-20T12:48:40.618Z,1.30
2023-03-20T12:51:22.220Z,1.20
2023-03-20T12:54:13.817Z,1.20
2023-03-20T12:57:06.236Z,1.10
2023-03-20T12:59:51.093Z,1.17
2023-03-20T13:02:50.617Z,1.65
2023-03-20T13:05:39.728Z,1.40
2023-03-20T13:08:24.473Z,1.30
2023-03-20T13:11:18.681Z,1.40
2023-03-20T13:13:55.763Z,1.43
2023-03-20T13:16:37.554Z,1.37
2023-03-20T13:19:11.545Z,1.52
2023-03-20T13:21:44.084Z,1.47
2023-03-20T13:24:32.649Z,1.90
2023-03-20T13:27:07.851Z,1.22
2023-03-20T13:29:55.731Z,1.10
2023-03-20T13:32:44.380Z,1.22
2023-03-20T13:35:37.752Z,1.52
2023-03-20T13:40:45.960Z,1.40
2023-03-20T13:43:18.494Z,1.12
2023-03-20T13:48:27.622Z,1.40
2023-03-20T13:51:21.434Z,1.32
2023-03-20T13:53:56.819Z,1.52
2023-03-20T13:56:29.576Z,1.20
2023-03-20T13:59:29.565Z,1.43
2023-03-20T14:02:20.228Z,1.37
2023-03-20T14:04:53.585Z,1.40
2023-03-20T14:07:35.904Z,1.27
2023-03-20T14:10:26.794Z,1.57
2023-03-20T14:13:04.096Z,1.50
2023-03-20T14:15:35.810Z,1.10
2023-03-20T14:18:08.393Z,1.27
2023-03-20T14:23:19.030Z,0.95
2023-03-20T14:25:49.527Z,1.32
2023-03-20T14:28:35.633Z,1.35
2023-03-20T14:31:23.164Z,1.17
2023-03-20T14:34:13.974Z,1.23
2023-03-20T14:36:47.438Z,1.42
2023-03-20T14:39:41.527Z,1.15
2023-03-20T14:42:37.995Z,1.00
2023-03-20T14:45:39.566Z,1.33
2023-03-20T14:48:24.025Z,1.20
2023-03-20T14:51:11.597Z,1.00
2023-03-20T14:53:42.273Z,1.30
2023-03-20T14:56:16.323Z,1.50
2023-03-20T14:58:54.467Z,1.03
2023-03-20T15:01:27.734Z,1.02
2023-03-20T15:04:03.006Z,1.32
2023-03-20T15:06:35.606Z,1.07
2023-03-20T15:09:10.647Z,1.02
2023-03-20T15:14:11.948Z,1.10
2023-03-20T15:16:41.529Z,1.17
2023-03-20T15:19:16.629Z,1.10
2023-03-20T15:21:48.531Z,1.25
2023-03-20T15:24:27.002Z,1.20
2023-03-20T15:27:03.178Z,1.10
2023-03-20T15:29:35.355Z,1.30
2023-03-20T15:32:14.592Z,1.40
2023-03-20T15:34:37.120Z,1.20
2023-03-20T15:37:08.284Z,1.62
2023-03-20T15:39:46.973Z,1.15
2023-03-20T15:42:19.759Z,1.05
2023-03-20T15:44:52.321Z,1.02
2023-03-20T15:47:24.887Z,1.00
2023-03-20T15:49:57.305Z,1.07
2023-03-20T15:52:36.005Z,1.02
2023-03-20T15:55:14.333Z,1.10
2023-03-20T15:57:47.149Z,1.10
2023-03-20T16:00:19.698Z,1.10
2023-03-20T16:02:50.086Z,1.30
2023-03-20T16:05:21.649Z,1.15
2023-03-20T16:07:51.250Z,1.07
2023-03-20T16:10:34.381Z,1.07
2023-03-20T16:13:06.999Z,1.30
2023-03-20T16:15:36.573Z,1.02
2023-03-20T16:18:08.040Z,1.17
2023-03-20T16:20:41.451Z,1.22
2023-03-20T16:23:12.389Z,0.90
2023-03-20T16:25:42.758Z,0.98
2023-03-20T16:28:15.580Z,1.27
2023-03-20T16:30:46.862Z,1.12
2023-03-20T16:33:19.092Z,1.15
2023-03-20T16:35:52.660Z,1.40
2023-03-20T16:38:25.374Z,1.27
2023-03-20T16:40:59.387Z,1.10
2023-03-20T16:43:33.160Z,1.70
2023-03-20T16:46:05.744Z,1.50
2023-03-20T16:48:40.083Z,1.30
2023-03-20T16:51:31.423Z,1.30
2023-03-20T16:54:02.299Z,1.32
2023-03-20T16:56:40.791Z,0.93
2023-03-20T16:59:13.035Z,1.30
2023-03-20T17:01:45.806Z,1.42
2023-03-20T17:04:21.118Z,1.82
2023-03-20T17:06:57.110Z,1.77
2023-03-20T17:09:32.230Z,1.45
2023-03-20T17:12:18.339Z,1.98
2023-03-20T17:14:47.830Z,1.75
2023-03-20T17:17:22.089Z,1.20
2023-03-20T17:19:53.383Z,1.50
2023-03-20T17:22:34.185Z,1.20
2023-03-20T17:25:03.705Z,1.80
2023-03-20T17:27:34.428Z,1.32
2023-03-20T17:30:03.999Z,1.15
2023-03-20T17:32:34.354Z,1.12
2023-03-20T17:35:04.016Z,1.00
2023-03-20T17:37:33.430Z,1.00
2023-03-20T17:40:06.336Z,1.20
2023-03-20T17:42:38.598Z,1.52
2023-03-20T17:45:08.667Z,1.45
2023-03-20T17:47:38.230Z,1.60
2023-03-20T17:50:11.119Z,1.60
2023-03-20T17:52:40.545Z,1.82
2023-03-20T17:55:10.731Z,1.57
2023-03-20T17:57:41.398Z,1.50
2023-03-20T18:00:20.416Z,1.37
2023-03-20T18:02:53.593Z,1.40
2023-03-20T18:05:23.254Z,1.62
2023-03-20T18:07:52.739Z,1.60
2023-03-20T18:10:25.570Z,1.60
2023-03-20T18:12:55.068Z,1.80
2023-03-20T18:15:24.633Z,2.00
2023-03-20T18:17:54.323Z,2.08
2023-03-20T18:20:32.519Z,2.25
2023-03-20T18:23:01.985Z,3.77
2023-03-20T18:25:31.552Z,4.60
2023-03-20T18:28:03.835Z,4.60
2023-03-20T18:30:39.062Z,3.30
2023-03-20T18:33:12.656Z,6.58
2023-03-20T18:35:42.242Z,8.35
2023-03-20T18:38:14.655Z,7.10
2023-03-20T18:40:45.717Z,12.88
2023-03-20T18:43:16.462Z,6.05
2023-03-20T18:45:47.151Z,6.28
2023-03-20T18:48:17.551Z,5.67
2023-03-20T18:50:48.606Z,4.62
2023-03-20T18:53:18.280Z,5.50
2023-03-20T18:55:47.789Z,3.70
2023-03-20T18:58:20.495Z,2.90
2023-03-20T19:00:50.652Z,3.08
2023-03-20T19:03:23.082Z,4.40
2023-03-20T19:05:55.000Z,3.33
2023-03-20T19:08:25.595Z,3.97
2023-03-20T19:10:55.006Z,4.47
2023-03-20T19:13:27.462Z,6.15
2023-03-20T19:15:56.906Z,5.47
2023-03-20T19:18:28.764Z,5.42
2023-03-20T19:20:59.760Z,5.47
2023-03-20T19:23:29.257Z,5.28
2023-03-20T19:25:58.732Z,7.00
2023-03-20T19:28:40.578Z,7.40
2023-03-20T19:31:03.398Z,7.95
2023-03-20T19:33:34.080Z,7.78
2023-03-20T19:36:04.984Z,7.78
2023-03-20T19:38:37.978Z,7.08
2023-03-20T19:41:09.390Z,6.87
2023-03-20T19:43:51.819Z,7.20
2023-03-20T19:46:28.488Z,7.22
2023-03-20T19:48:51.145Z,8.43
2023-03-20T19:51:23.000Z,8.50
2023-03-20T19:53:52.940Z,7.50
2023-03-20T19:56:24.485Z,7.55
2023-03-20T19:58:55.198Z,6.83
2023-03-20T20:01:26.089Z,7.33
2023-03-20T20:03:57.934Z,9.20
2023-03-20T20:06:31.593Z,8.35
2023-03-20T20:08:58.632Z,6.95
2023-03-20T20:11:28.648Z,7.40
2023-03-20T20:14:08.952Z,6.60
2023-03-20T20:16:30.782Z,5.90
2023-03-20T20:19:00.741Z,5.67
2023-03-20T20:24:01.713Z,7.20
2023-03-20T20:26:36.077Z,7.05
2023-03-20T20:29:02.992Z,6.87
2023-03-20T20:31:33.028Z,5.97
2023-03-20T20:34:58.413Z,6.22
2023-03-20T20:39:05.742Z,6.65
2023-03-20T20:41:35.511Z,8.73
2023-03-20T20:44:16.098Z,12.98
2023-03-20T20:46:36.923Z,13.93
2023-03-20T20:49:18.452Z,14.23
2023-03-20T20:51:37.985Z,12.68
2023-03-20T20:54:08.997Z,14.75
2023-03-20T20:56:38.469Z,17.10
2023-03-20T20:59:08.078Z,15.35
2023-03-20T21:01:37.787Z,16.07
2023-03-20T21:04:07.344Z,15.30
2023-03-20T21:07:06.155Z,16.00
2023-03-20T21:09:08.961Z,15.23
2023-03-20T21:11:39.023Z,15.50
2023-03-20T21:14:08.698Z,15.70
2023-03-20T21:16:38.381Z,15.60
2023-03-20T21:19:07.877Z,15.98
2023-03-20T21:21:39.581Z,16.40
2023-03-20T21:24:30.390Z,17.62
2023-03-20T21:26:42.228Z,17.67
2023-03-20T21:29:11.665Z,16.17
2023-03-20T21:31:41.145Z,17.85
2023-03-20T21:34:10.830Z,16.73
2023-03-20T21:36:41.945Z,16.60
2023-03-20T21:39:11.852Z,15.78
2023-03-20T21:41:42.232Z,15.48
2023-03-20T21:44:17.166Z,15.35
2023-03-20T21:55:00.778Z,12.63
2023-03-20T22:02:09.506Z,10.08
2023-03-20T22:05:18.825Z,9.13
2023-03-20T22:33:10.904Z,6.50
2023-03-20T22:35:41.776Z,6.37
2023-03-20T22:42:53.690Z,6.10
2023-03-20T22:45:05.267Z,5.90
2023-03-20T22:47:36.538Z,6.47
2023-03-20T22:50:06.267Z,6.85
2023-03-20T22:52:48.231Z,6.50
2023-03-20T22:55:09.779Z,6.65
2023-03-20T22:57:47.650Z,7.57
2023-03-20T23:00:15.454Z,7.50
2023-03-20T23:02:45.198Z,7.80
2023-03-20T23:05:14.626Z,8.13
2023-03-20T23:07:44.786Z,7.58
2023-03-20T23:10:14.460Z,8.15
2023-03-20T23:12:44.355Z,8.53
2023-03-20T23:15:14.616Z,8.80
2023-03-20T23:18:03.780Z,8.90
2023-03-20T23:20:33.772Z,10.72
2023-03-20T23:23:03.339Z,10.98
2023-03-20T23:25:39.317Z,9.45
2023-03-20T23:28:04.835Z,8.50
2023-03-20T23:30:44.279Z,9.95
2023-03-20T23:33:06.616Z,8.73
2023-03-20T23:35:37.274Z,9.43
2023-03-20T23:38:06.743Z,9.20
2023-03-20T23:40:36.842Z,10.20
2023-03-20T23:43:07.094Z,9.20
2023-03-20T23:45:36.682Z,9.63
2023-03-20T23:48:08.440Z,8.93
2023-03-20T23:50:51.764Z,8.13
2023-03-20T23:53:19.805Z,9.10
2023-03-20T23:55:45.374Z,8.18
2023-03-20T23:58:16.497Z,8.18
